sensor_id;sensor_type;location;lat;lon;timestamp;pressure;altitude;pressure_sealevel;temperature;humidity
18755;BME280;35061;47.664;9.166;2023-02-04T00:01:32;103028.73;;;5.65;77.15
18755;BME280;35061;47.664;9.166;2023-02-04T00:04:00;103016.53;;;5.61;77.65
18755;BME280;35061;47.664;9.166;2023-02-04T00:06:28;103017.34;;;5.54;78.84
18755;BME280;35061;47.664;9.166;2023-02-04T00:08:56;103027.48;;;5.48;78.81
18755;BME280;35061;47.664;9.166;2023-02-04T00:11:24;103026.66;;;5.44;80.01
18755;BME280;35061;47.664;9.166;2023-02-04T00:13:52;103014.86;;;5.38;79.22
18755;BME280;35061;47.664;9.166;2023-02-04T00:16:19;103009.20;;;5.31;80.00
18755;BME280;35061;47.664;9.166;2023-02-04T00:18:47;103010.80;;;5.28;80.28
18755;BME280;35061;47.664;9.166;2023-02-04T00:21:15;103009.17;;;5.24;80.73
18755;BME280;35061;47.664;9.166;2023-02-04T00:23:43;102996.58;;;5.17;81.51
18755;BME280;35061;47.664;9.166;2023-02-04T00:26:10;102991.71;;;5.14;81.58
18755;BME280;35061;47.664;9.166;2023-02-04T00:28:38;102994.52;;;5.11;81.81
18755;BME280;35061;47.664;9.166;2023-02-04T00:31:07;102999.79;;;5.09;82.42
18755;BME280;35061;47.664;9.166;2023-02-04T00:33:34;102999.79;;;5.05;82.96
18755;BME280;35061;47.664;9.166;2023-02-04T00:36:02;103006.69;;;5.04;82.57
18755;BME280;35061;47.664;9.166;2023-02-04T00:38:30;102994.09;;;5.01;82.39
18755;BME280;35061;47.664;9.166;2023-02-04T00:40:58;103007.50;;;5.01;82.53
18755;BME280;35061;47.664;9.166;2023-02-04T00:43:25;103017.21;;;4.96;83.51
18755;BME280;35061;47.664;9.166;2023-02-04T00:45:53;103024.51;;;4.94;82.97
18755;BME280;35061;47.664;9.166;2023-02-04T00:48:21;103039.09;;;4.92;83.01
18755;BME280;35061;47.664;9.166;2023-02-04T00:50:52;103036.67;;;4.91;84.43
18755;BME280;35061;47.664;9.166;2023-02-04T00:53:20;103034.61;;;4.87;84.70
18755;BME280;35061;47.664;9.166;2023-02-04T00:55:48;103048.80;;;4.87;85.10
18755;BME280;35061;47.664;9.166;2023-02-04T00:58:15;103028.92;;;4.87;84.29
18755;BME280;35061;47.664;9.166;2023-02-04T01:00:43;103038.27;;;4.88;84.47
18755;BME280;35061;47.664;9.166;2023-02-04T01:03:11;103022.84;;;4.85;84.67
18755;BME280;35061;47.664;9.166;2023-02-04T01:05:39;103008.22;;;4.83;85.09
18755;BME280;35061;47.664;9.166;2023-02-04T01:08:07;103019.21;;;4.85;84.88
18755;BME280;35061;47.664;9.166;2023-02-04T01:10:34;103005.02;;;4.85;84.78
18755;BME280;35061;47.664;9.166;2023-02-04T01:13:02;103025.29;;;4.87;85.04
18755;BME280;35061;47.664;9.166;2023-02-04T01:15:30;103031.38;;;4.89;84.49
18755;BME280;35061;47.664;9.166;2023-02-04T01:17:58;103038.27;;;4.88;84.37
18755;BME280;35061;47.664;9.166;2023-02-04T01:20:26;103034.22;;;4.93;84.38
18755;BME280;35061;47.664;9.166;2023-02-04T01:22:54;103031.80;;;4.91;84.76
18755;BME280;35061;47.664;9.166;2023-02-04T01:25:21;103027.74;;;4.92;84.58
18755;BME280;35061;47.664;9.166;2023-02-04T01:27:49;103039.09;;;4.92;84.40
18755;BME280;35061;47.664;9.166;2023-02-04T01:30:17;103029.34;;;4.93;84.46
18755;BME280;35061;47.664;9.166;2023-02-04T01:32:47;103032.62;;;4.95;84.20
18755;BME280;35061;47.664;9.166;2023-02-04T01:35:15;103022.87;;;4.93;84.46
18755;BME280;35061;47.664;9.166;2023-02-04T01:37:43;103026.50;;;4.93;84.51
18755;BME280;35061;47.664;9.166;2023-02-04T01:40:11;103025.33;;;4.94;84.51
18755;BME280;35061;47.664;9.166;2023-02-04T01:42:39;103020.45;;;4.95;84.36
18755;BME280;35061;47.664;9.166;2023-02-04T01:45:07;103009.46;;;4.93;84.52
18755;BME280;35061;47.664;9.166;2023-02-04T01:47:36;103015.97;;;4.94;84.44
18755;BME280;35061;47.664;9.166;2023-02-04T01:50:05;103015.97;;;4.94;85.03
18755;BME280;35061;47.664;9.166;2023-02-04T01:52:36;103021.27;;;4.95;84.77
18755;BME280;35061;47.664;9.166;2023-02-04T01:55:13;103027.35;;;4.94;84.84
18755;BME280;35061;47.664;9.166;2023-02-04T01:57:41;103024.12;;;4.95;84.99
18755;BME280;35061;47.664;9.166;2023-02-04T02:00:18;103024.51;;;4.97;84.61
18755;BME280;35061;47.664;9.166;2023-02-04T02:02:50;103027.35;;;4.97;84.68
18755;BME280;35061;47.664;9.166;2023-02-04T02:05:24;103028.56;;;4.96;84.71
18755;BME280;35061;47.664;9.166;2023-02-04T02:07:55;103026.53;;;4.97;84.74
18755;BME280;35061;47.664;9.166;2023-02-04T02:10:24;103028.56;;;4.96;85.00
18755;BME280;35061;47.664;9.166;2023-02-04T02:12:53;103013.95;;;4.98;84.80
18755;BME280;35061;47.664;9.166;2023-02-04T02:15:22;103025.33;;;4.98;84.95
18755;BME280;35061;47.664;9.166;2023-02-04T02:17:52;103019.63;;;4.98;84.83
18755;BME280;35061;47.664;9.166;2023-02-04T02:20:22;103019.63;;;5.01;84.47
18755;BME280;35061;47.664;9.166;2023-02-04T02:25:43;103021.27;;;5.02;84.69
18755;BME280;35061;47.664;9.166;2023-02-04T02:28:14;103016.82;;;5.01;84.69
18755;BME280;35061;47.664;9.166;2023-02-04T02:30:43;103015.58;;;5.02;84.45
18755;BME280;35061;47.664;9.166;2023-02-04T02:33:12;103016.04;;;5.05;84.28
18755;BME280;35061;47.664;9.166;2023-02-04T02:35:45;103020.48;;;5.06;84.00
18755;BME280;35061;47.664;9.166;2023-02-04T02:38:16;103020.91;;;5.08;84.17
18755;BME280;35061;47.664;9.166;2023-02-04T02:40:44;103020.06;;;5.07;84.06
18755;BME280;35061;47.664;9.166;2023-02-04T02:43:16;103015.61;;;5.06;84.42
18755;BME280;35061;47.664;9.166;2023-02-04T02:45:45;103022.12;;;5.07;84.24
18755;BME280;35061;47.664;9.166;2023-02-04T02:48:12;103026.17;;;5.09;84.01
18755;BME280;35061;47.664;9.166;2023-02-04T02:50:40;103026.57;;;5.08;84.15
18755;BME280;35061;47.664;9.166;2023-02-04T02:53:14;103028.59;;;5.11;84.02
18755;BME280;35061;47.664;9.166;2023-02-04T02:55:42;103026.60;;;5.11;83.70
18755;BME280;35061;47.664;9.166;2023-02-04T02:58:32;103018.46;;;5.10;84.27
18755;BME280;35061;47.664;9.166;2023-02-04T03:01:04;103026.17;;;5.13;83.78
18755;BME280;35061;47.664;9.166;2023-02-04T03:03:37;103029.45;;;5.11;83.99
18755;BME280;35061;47.664;9.166;2023-02-04T03:06:11;103028.62;;;5.14;83.55
18755;BME280;35061;47.664;9.166;2023-02-04T03:08:40;103031.47;;;5.14;83.72
18755;BME280;35061;47.664;9.166;2023-02-04T03:11:09;103020.09;;;5.14;83.67
18755;BME280;35061;47.664;9.166;2023-02-04T03:13:37;103019.70;;;5.12;84.01
18755;BME280;35061;47.664;9.166;2023-02-04T03:16:05;103021.73;;;5.15;83.81
18755;BME280;35061;47.664;9.166;2023-02-04T03:18:35;103021.34;;;5.17;83.81
18755;BME280;35061;47.664;9.166;2023-02-04T03:21:03;103021.34;;;5.17;83.83
18755;BME280;35061;47.664;9.166;2023-02-04T03:23:34;103034.35;;;5.22;83.62
18755;BME280;35061;47.664;9.166;2023-02-04T03:26:04;103025.81;;;5.22;83.83
18755;BME280;35061;47.664;9.166;2023-02-04T03:28:32;103029.05;;;5.24;83.78
18755;BME280;35061;47.664;9.166;2023-02-04T03:31:00;103026.21;;;5.24;84.09
18755;BME280;35061;47.664;9.166;2023-02-04T03:33:28;103029.87;;;5.21;84.68
18755;BME280;35061;47.664;9.166;2023-02-04T03:35:58;103025.39;;;5.16;84.79
18755;BME280;35061;47.664;9.166;2023-02-04T03:38:26;103026.60;;;5.19;84.62
18755;BME280;35061;47.664;9.166;2023-02-04T03:40:53;103026.60;;;5.19;84.85
18755;BME280;35061;47.664;9.166;2023-02-04T03:43:21;103018.88;;;5.15;84.88
18755;BME280;35061;47.664;9.166;2023-02-04T03:45:49;103024.96;;;5.17;85.14
18755;BME280;35061;47.664;9.166;2023-02-04T03:48:16;103027.84;;;5.21;84.69
18755;BME280;35061;47.664;9.166;2023-02-04T03:50:44;103046.09;;;5.20;84.55
18755;BME280;35061;47.664;9.166;2023-02-04T03:53:12;103058.68;;;5.19;84.91
18755;BME280;35061;47.664;9.166;2023-02-04T03:55:40;103062.73;;;5.22;84.51
18755;BME280;35061;47.664;9.166;2023-02-04T03:58:08;103042.03;;;5.21;84.73
18755;BME280;35061;47.664;9.166;2023-02-04T04:00:35;103040.43;;;5.24;84.47
18755;BME280;35061;47.664;9.166;2023-02-04T04:03:03;103058.25;;;5.24;84.47
18755;BME280;35061;47.664;9.166;2023-02-04T04:05:31;103063.55;;;5.26;84.71
18755;BME280;35061;47.664;9.166;2023-02-04T04:07:59;103048.97;;;5.27;84.41
18755;BME280;35061;47.664;9.166;2023-02-04T04:10:26;103057.50;;;5.27;84.61
18755;BME280;35061;47.664;9.166;2023-02-04T04:12:56;103048.97;;;5.27;84.41
18755;BME280;35061;47.664;9.166;2023-02-04T04:15:24;103046.91;;;5.28;84.76
18755;BME280;35061;47.664;9.166;2023-02-04T04:17:52;103042.07;;;5.28;84.49
18755;BME280;35061;47.664;9.166;2023-02-04T04:20:19;103044.48;;;5.30;84.73
18755;BME280;35061;47.664;9.166;2023-02-04T04:22:51;103050.60;;;5.32;84.52
18755;BME280;35061;47.664;9.166;2023-02-04T04:25:19;103057.89;;;5.33;84.87
18755;BME280;35061;47.664;9.166;2023-02-04T04:27:47;103048.97;;;5.31;85.01
18755;BME280;35061;47.664;9.166;2023-02-04T04:30:15;103054.66;;;5.31;84.92
18755;BME280;35061;47.664;9.166;2023-02-04T04:32:43;103052.23;;;5.33;84.97
18755;BME280;35061;47.664;9.166;2023-02-04T04:35:11;103054.66;;;5.31;85.57
18755;BME280;35061;47.664;9.166;2023-02-04T04:37:39;103066.82;;;5.31;85.64
18755;BME280;35061;47.664;9.166;2023-02-04T04:40:10;103073.75;;;5.34;85.37
18755;BME280;35061;47.664;9.166;2023-02-04T04:42:38;103064.80;;;5.36;85.23
18755;BME280;35061;47.664;9.166;2023-02-04T04:45:07;103070.48;;;5.39;85.12
18755;BME280;35061;47.664;9.166;2023-02-04T04:47:35;103066.04;;;5.38;85.51
18755;BME280;35061;47.664;9.166;2023-02-04T04:50:03;103062.38;;;5.38;85.63
18755;BME280;35061;47.664;9.166;2023-02-04T04:52:31;103073.75;;;5.41;85.47
18755;BME280;35061;47.664;9.166;2023-02-04T04:54:59;103068.49;;;5.43;85.50
18755;BME280;35061;47.664;9.166;2023-02-04T04:57:27;103067.67;;;5.47;85.26
18755;BME280;35061;47.664;9.166;2023-02-04T04:59:54;103071.73;;;5.45;85.53
18755;BME280;35061;47.664;9.166;2023-02-04T05:02:22;103060.77;;;5.48;85.37
18755;BME280;35061;47.664;9.166;2023-02-04T05:04:51;103064.86;;;5.50;85.32
18755;BME280;35061;47.664;9.166;2023-02-04T05:07:19;103062.02;;;5.50;85.41
18755;BME280;35061;47.664;9.166;2023-02-04T05:09:46;103053.09;;;5.48;85.90
18755;BME280;35061;47.664;9.166;2023-02-04T05:12:14;103059.56;;;5.52;85.33
18755;BME280;35061;47.664;9.166;2023-02-04T05:14:42;103054.69;;;5.49;85.65
18755;BME280;35061;47.664;9.166;2023-02-04T05:17:10;103067.28;;;5.52;85.51
18755;BME280;35061;47.664;9.166;2023-02-04T05:19:39;103065.64;;;5.54;85.42
18755;BME280;35061;47.664;9.166;2023-02-04T05:22:06;103075.81;;;5.55;85.25
18755;BME280;35061;47.664;9.166;2023-02-04T05:24:34;103076.63;;;5.56;85.27
18755;BME280;35061;47.664;9.166;2023-02-04T05:27:02;103083.53;;;5.55;85.54
18755;BME280;35061;47.664;9.166;2023-02-04T05:29:30;103088.01;;;5.56;85.54
18755;BME280;35061;47.664;9.166;2023-02-04T05:31:57;103092.46;;;5.57;85.41
18755;BME280;35061;47.664;9.166;2023-02-04T05:34:26;103094.91;;;5.58;85.23
18755;BME280;35061;47.664;9.166;2023-02-04T05:36:54;103100.17;;;5.60;85.37
18755;BME280;35061;47.664;9.166;2023-02-04T05:39:22;103090.04;;;5.59;85.31
18755;BME280;35061;47.664;9.166;2023-02-04T05:41:49;103096.12;;;5.61;85.19
18755;BME280;35061;47.664;9.166;2023-02-04T05:44:17;103083.53;;;5.62;85.49
18755;BME280;35061;47.664;9.166;2023-02-04T05:46:45;103097.33;;;5.60;85.38
18755;BME280;35061;47.664;9.166;2023-02-04T05:49:13;103093.70;;;5.59;85.75
18755;BME280;35061;47.664;9.166;2023-02-04T05:51:40;103090.85;;;5.59;85.89
18755;BME280;35061;47.664;9.166;2023-02-04T05:54:08;103096.55;;;5.59;86.01
18755;BME280;35061;47.664;9.166;2023-02-04T05:56:36;103099.39;;;5.59;86.16
18755;BME280;35061;47.664;9.166;2023-02-04T05:59:04;103101.38;;;5.59;86.61
18755;BME280;35061;47.664;9.166;2023-02-04T06:01:31;103107.08;;;5.59;86.54
18755;BME280;35061;47.664;9.166;2023-02-04T06:03:59;103102.62;;;5.58;87.05
18755;BME280;35061;47.664;9.166;2023-02-04T06:06:27;103113.16;;;5.57;86.69
18755;BME280;35061;47.664;9.166;2023-02-04T06:08:54;103103.45;;;5.58;86.69
18755;BME280;35061;47.664;9.166;2023-02-04T06:11:22;103112.77;;;5.55;87.55
18755;BME280;35061;47.664;9.166;2023-02-04T06:13:50;103120.48;;;5.55;87.82
18755;BME280;35061;47.664;9.166;2023-02-04T06:16:17;103121.70;;;5.54;88.08
18755;BME280;35061;47.664;9.166;2023-02-04T06:18:45;103114.40;;;5.53;87.72
18755;BME280;35061;47.664;9.166;2023-02-04T06:21:13;103123.33;;;5.55;87.83
18755;BME280;35061;47.664;9.166;2023-02-04T06:23:41;103129.80;;;5.55;88.22
18755;BME280;35061;47.664;9.166;2023-02-04T06:26:09;103126.95;;;5.55;88.13
18755;BME280;35061;47.664;9.166;2023-02-04T06:28:37;103133.07;;;5.54;88.08
18755;BME280;35061;47.664;9.166;2023-02-04T06:31:05;103129.41;;;5.53;89.26
18755;BME280;35061;47.664;9.166;2023-02-04T06:33:32;103136.70;;;5.51;88.84
18755;BME280;35061;47.664;9.166;2023-02-04T06:36:01;103133.07;;;5.50;88.61
18755;BME280;35061;47.664;9.166;2023-02-04T06:38:29;103138.34;;;5.44;89.35
18755;BME280;35061;47.664;9.166;2023-02-04T06:40:57;103126.14;;;5.44;90.01
18755;BME280;35061;47.664;9.166;2023-02-04T06:43:24;103131.80;;;5.44;89.57
18755;BME280;35061;47.664;9.166;2023-02-04T06:45:53;103131.01;;;5.43;90.76
18755;BME280;35061;47.664;9.166;2023-02-04T06:48:21;103152.13;;;5.42;90.29
18755;BME280;35061;47.664;9.166;2023-02-04T06:50:49;103157.79;;;5.39;90.61
18755;BME280;35061;47.664;9.166;2023-02-04T06:53:17;103154.52;;;5.40;91.21
18755;BME280;35061;47.664;9.166;2023-02-04T06:55:45;103164.27;;;5.39;91.28
18755;BME280;35061;47.664;9.166;2023-02-04T06:58:13;103162.27;;;5.40;90.57
18755;BME280;35061;47.664;9.166;2023-02-04T07:00:40;103174.02;;;5.38;91.55
18755;BME280;35061;47.664;9.166;2023-02-04T07:03:08;103159.79;;;5.35;92.07
18755;BME280;35061;47.664;9.166;2023-02-04T07:05:36;103161.81;;;5.30;92.15
18755;BME280;35061;47.664;9.166;2023-02-04T07:08:04;103158.58;;;5.32;91.56
18755;BME280;35061;47.664;9.166;2023-02-04T07:10:32;103162.63;;;5.31;91.42
18755;BME280;35061;47.664;9.166;2023-02-04T07:13:00;103171.16;;;5.31;92.34
18755;BME280;35061;47.664;9.166;2023-02-04T07:15:28;103178.46;;;5.28;92.50
18755;BME280;35061;47.664;9.166;2023-02-04T07:17:57;103172.34;;;5.26;93.00
18755;BME280;35061;47.664;9.166;2023-02-04T07:20:25;103182.91;;;5.29;92.24
18755;BME280;35061;47.664;9.166;2023-02-04T07:22:52;103180.88;;;5.26;93.31
18755;BME280;35061;47.664;9.166;2023-02-04T07:25:20;103176.79;;;5.24;93.13
18755;BME280;35061;47.664;9.166;2023-02-04T07:27:48;103179.24;;;5.22;93.50
18755;BME280;35061;47.664;9.166;2023-02-04T07:30:16;103188.56;;;5.26;93.23
18755;BME280;35061;47.664;9.166;2023-02-04T07:32:44;103191.80;;;5.24;93.42
18755;BME280;35061;47.664;9.166;2023-02-04T07:35:12;103191.80;;;5.24;93.13
18755;BME280;35061;47.664;9.166;2023-02-04T07:37:40;103197.49;;;5.24;94.58
18755;BME280;35061;47.664;9.166;2023-02-04T07:40:10;103200.34;;;5.24;94.22
18755;BME280;35061;47.664;9.166;2023-02-04T07:42:38;103198.30;;;5.25;94.15
18755;BME280;35061;47.664;9.166;2023-02-04T07:45:06;103202.40;;;5.27;93.67
18755;BME280;35061;47.664;9.166;2023-02-04T07:47:34;103206.88;;;5.28;93.55
18755;BME280;35061;47.664;9.166;2023-02-04T07:50:02;103208.51;;;5.33;93.42
18755;BME280;35061;47.664;9.166;2023-02-04T07:52:30;103209.30;;;5.34;93.46
18755;BME280;35061;47.664;9.166;2023-02-04T07:54:58;103217.05;;;5.33;94.11
18755;BME280;35061;47.664;9.166;2023-02-04T07:57:26;103219.47;;;5.31;94.18
18755;BME280;35061;47.664;9.166;2023-02-04T07:59:53;103213.77;;;5.31;94.74
18755;BME280;35061;47.664;9.166;2023-02-04T08:02:21;103215.84;;;5.34;95.04
18755;BME280;35061;47.664;9.166;2023-02-04T08:04:49;103214.20;;;5.33;94.90
18755;BME280;35061;47.664;9.166;2023-02-04T08:07:17;103222.31;;;5.35;94.07
18755;BME280;35061;47.664;9.166;2023-02-04T08:09:45;103231.66;;;5.35;94.45
18755;BME280;35061;47.664;9.166;2023-02-04T08:12:13;103236.53;;;5.38;94.89
18755;BME280;35061;47.664;9.166;2023-02-04T08:14:41;103239.80;;;5.44;94.87
18755;BME280;35061;47.664;9.166;2023-02-04T08:17:09;103238.23;;;5.54;94.99
18755;BME280;35061;47.664;9.166;2023-02-04T08:19:36;103237.45;;;5.61;94.82
18755;BME280;35061;47.664;9.166;2023-02-04T08:22:04;103239.51;;;5.67;94.83
18755;BME280;35061;47.664;9.166;2023-02-04T08:24:32;103238.73;;;5.74;94.74
18755;BME280;35061;47.664;9.166;2023-02-04T08:27:00;103236.30;;;5.80;94.76
18755;BME280;35061;47.664;9.166;2023-02-04T08:29:28;103239.97;;;5.84;94.62
18755;BME280;35061;47.664;9.166;2023-02-04T08:31:56;103238.37;;;5.86;94.31
18755;BME280;35061;47.664;9.166;2023-02-04T08:34:24;103244.05;;;5.86;94.07
18755;BME280;35061;47.664;9.166;2023-02-04T08:36:51;103246.51;;;5.88;94.10
18755;BME280;35061;47.664;9.166;2023-02-04T08:39:19;103250.56;;;5.87;93.97
18755;BME280;35061;47.664;9.166;2023-02-04T08:41:47;103251.35;;;5.87;93.83
18755;BME280;35061;47.664;9.166;2023-02-04T08:44:18;103257.46;;;5.86;93.74
18755;BME280;35061;47.664;9.166;2023-02-04T08:46:45;103255.44;;;5.86;93.66
18755;BME280;35061;47.664;9.166;2023-02-04T08:49:13;103266.42;;;5.88;94.08
18755;BME280;35061;47.664;9.166;2023-02-04T08:51:41;103262.73;;;5.87;93.75
18755;BME280;35061;47.664;9.166;2023-02-04T08:54:09;103257.89;;;5.88;93.87
18755;BME280;35061;47.664;9.166;2023-02-04T08:56:36;103257.89;;;5.88;93.94
18755;BME280;35061;47.664;9.166;2023-02-04T08:59:04;103261.55;;;5.92;94.20
18755;BME280;35061;47.664;9.166;2023-02-04T09:01:32;103252.23;;;5.95;94.27
18755;BME280;35061;47.664;9.166;2023-02-04T09:03:59;103260.34;;;5.97;94.29
18755;BME280;35061;47.664;9.166;2023-02-04T09:06:27;103252.23;;;5.95;94.17
18755;BME280;35061;47.664;9.166;2023-02-04T09:08:55;103263.61;;;5.95;93.91
18755;BME280;35061;47.664;9.166;2023-02-04T09:11:23;103266.45;;;5.95;93.79
18755;BME280;35061;47.664;9.166;2023-02-04T09:13:50;103272.15;;;5.95;93.58
18755;BME280;35061;47.664;9.166;2023-02-04T09:16:18;103273.32;;;5.94;93.55
18755;BME280;35061;47.664;9.166;2023-02-04T09:18:46;103276.56;;;5.89;93.24
18755;BME280;35061;47.664;9.166;2023-02-04T09:21:13;103276.56;;;5.89;93.22
18755;BME280;35061;47.664;9.166;2023-02-04T09:23:41;103270.87;;;5.89;93.28
18755;BME280;35061;47.664;9.166;2023-02-04T09:26:09;103276.95;;;5.87;93.16
18755;BME280;35061;47.664;9.166;2023-02-04T09:28:37;103274.92;;;5.84;93.01
18755;BME280;35061;47.664;9.166;2023-02-04T09:31:04;103270.45;;;5.83;93.24
18755;BME280;35061;47.664;9.166;2023-02-04T09:33:34;103281.82;;;5.83;93.20
18755;BME280;35061;47.664;9.166;2023-02-04T09:36:02;103288.33;;;5.84;93.33
18755;BME280;35061;47.664;9.166;2023-02-04T09:38:30;103285.91;;;5.86;93.51
18755;BME280;35061;47.664;9.166;2023-02-04T09:41:03;103287.13;;;5.89;93.19
18755;BME280;35061;47.664;9.166;2023-02-04T09:43:43;103283.46;;;5.88;93.13
18755;BME280;35061;47.664;9.166;2023-02-04T09:46:19;103289.57;;;5.90;93.23
18755;BME280;35061;47.664;9.166;2023-02-04T09:48:48;103283.07;;;5.93;93.22
18755;BME280;35061;47.664;9.166;2023-02-04T09:51:20;103276.59;;;5.96;93.06
18755;BME280;35061;47.664;9.166;2023-02-04T09:53:49;103288.79;;;6.00;92.87
18755;BME280;35061;47.664;9.166;2023-02-04T09:56:20;103295.33;;;6.05;92.71
18755;BME280;35061;47.664;9.166;2023-02-04T09:58:48;103279.47;;;6.04;92.70
18755;BME280;35061;47.664;9.166;2023-02-04T10:01:18;103287.65;;;6.09;92.57
18755;BME280;35061;47.664;9.166;2023-02-04T10:03:48;103291.30;;;6.13;92.37
18755;BME280;35061;47.664;9.166;2023-02-04T10:06:19;103291.34;;;6.20;92.81
18755;BME280;35061;47.664;9.166;2023-02-04T10:08:49;103294.64;;;6.48;92.94
18755;BME280;35061;47.664;9.166;2023-02-04T10:11:19;103302.78;;;6.56;91.83
18755;BME280;35061;47.664;9.166;2023-02-04T10:13:51;103301.18;;;6.63;91.75
18755;BME280;35061;47.664;9.166;2023-02-04T10:16:23;103302.39;;;6.76;92.13
18755;BME280;35061;47.664;9.166;2023-02-04T10:18:58;103302.39;;;6.87;91.89
18755;BME280;35061;47.664;9.166;2023-02-04T10:21:28;103300.37;;;6.98;91.85
18755;BME280;35061;47.664;9.166;2023-02-04T10:23:58;103304.42;;;7.08;90.94
18755;BME280;35061;47.664;9.166;2023-02-04T10:26:29;103306.05;;;7.13;90.38
18755;BME280;35061;47.664;9.166;2023-02-04T10:29:05;103304.42;;;7.16;89.82
18755;BME280;35061;47.664;9.166;2023-02-04T10:31:40;103300.76;;;7.26;89.79
18755;BME280;35061;47.664;9.166;2023-02-04T10:34:36;103293.01;;;7.23;88.21
18755;BME280;35061;47.664;9.166;2023-02-04T10:37:18;103295.85;;;7.30;88.17
18755;BME280;35061;47.664;9.166;2023-02-04T10:39:47;103301.15;;;7.35;87.51
18755;BME280;35061;47.664;9.166;2023-02-04T10:42:27;103292.16;;;7.37;86.97
18755;BME280;35061;47.664;9.166;2023-02-04T10:44:56;103296.21;;;7.43;87.49
18755;BME280;35061;47.664;9.166;2023-02-04T10:47:26;103300.30;;;7.46;87.20
18755;BME280;35061;47.664;9.166;2023-02-04T10:52:44;103294.55;;;7.53;86.47
18755;BME280;35061;47.664;9.166;2023-02-04T10:55:16;103302.33;;;7.56;86.48
18755;BME280;35061;47.664;9.166;2023-02-04T10:57:47;103299.45;;;7.60;86.10
18755;BME280;35061;47.664;9.166;2023-02-04T11:00:23;103296.60;;;7.60;85.18
18755;BME280;35061;47.664;9.166;2023-02-04T11:02:58;103297.00;;;7.65;86.28
18755;BME280;35061;47.664;9.166;2023-02-04T11:05:30;103288.40;;;7.73;85.92
18755;BME280;35061;47.664;9.166;2023-02-04T11:07:59;103292.06;;;7.77;85.17
18755;BME280;35061;47.664;9.166;2023-02-04T11:10:30;103296.12;;;7.79;84.75
18755;BME280;35061;47.664;9.166;2023-02-04T11:13:03;103288.37;;;7.84;84.66
18755;BME280;35061;47.664;9.166;2023-02-04T11:20:48;103277.31;;;7.89;83.39
18755;BME280;35061;47.664;9.166;2023-02-04T11:25:44;103280.55;;;7.99;83.90
18755;BME280;35061;47.664;9.166;2023-02-04T11:28:23;103290.30;;;8.05;83.88
18755;BME280;35061;47.664;9.166;2023-02-04T11:30:59;103290.69;;;8.07;83.54
18755;BME280;35061;47.664;9.166;2023-02-04T11:33:37;103285.39;;;8.13;83.28
18755;BME280;35061;47.664;9.166;2023-02-04T11:36:09;103287.41;;;8.12;83.21
18755;BME280;35061;47.664;9.166;2023-02-04T11:38:38;103282.51;;;8.13;81.99
18755;BME280;35061;47.664;9.166;2023-02-04T11:41:22;103278.85;;;8.12;82.82
18755;BME280;35061;47.664;9.166;2023-02-04T11:43:52;103277.57;;;8.24;81.67
18755;BME280;35061;47.664;9.166;2023-02-04T11:46:22;103269.79;;;8.24;81.37
18755;BME280;35061;47.664;9.166;2023-02-04T11:48:57;103276.30;;;8.29;81.46
18755;BME280;35061;47.664;9.166;2023-02-04T11:51:30;103270.61;;;8.29;79.94
18755;BME280;35061;47.664;9.166;2023-02-04T11:53:58;103277.05;;;8.36;80.94
18755;BME280;35061;47.664;9.166;2023-02-04T11:56:28;103277.80;;;8.48;81.13
18755;BME280;35061;47.664;9.166;2023-02-04T11:58:57;103277.73;;;8.59;80.51
18755;BME280;35061;47.664;9.166;2023-02-04T12:01:34;103277.70;;;8.62;79.66
18755;BME280;35061;47.664;9.166;2023-02-04T12:04:04;103267.11;;;8.63;76.89
18755;BME280;35061;47.664;9.166;2023-02-04T12:06:35;103261.02;;;8.61;77.61
18755;BME280;35061;47.664;9.166;2023-02-04T12:09:27;103264.66;;;8.65;76.96
18755;BME280;35061;47.664;9.166;2023-02-04T12:12:01;103265.93;;;8.49;73.06
18755;BME280;35061;47.664;9.166;2023-02-04T12:14:35;103269.66;;;8.46;76.09
18755;BME280;35061;47.664;9.166;2023-02-04T12:17:31;103270.48;;;8.47;76.52
18755;BME280;35061;47.664;9.166;2023-02-04T12:19:59;103264.43;;;8.37;74.65
18755;BME280;35061;47.664;9.166;2023-02-04T12:22:27;103264.82;;;8.36;76.02
18755;BME280;35061;47.664;9.166;2023-02-04T12:24:55;103257.89;;;8.33;76.16
18755;BME280;35061;47.664;9.166;2023-02-04T12:27:23;103256.77;;;8.20;74.88
18755;BME280;35061;47.664;9.166;2023-02-04T12:29:50;103262.92;;;8.15;76.01
18755;BME280;35061;47.664;9.166;2023-02-04T12:32:18;103272.34;;;8.08;75.40
18755;BME280;35061;47.664;9.166;2023-02-04T12:34:46;103274.44;;;7.96;76.06
18755;BME280;35061;47.664;9.166;2023-02-04T12:37:14;103277.70;;;7.95;76.49
18755;BME280;35061;47.664;9.166;2023-02-04T12:39:41;103276.10;;;7.87;76.86
18755;BME280;35061;47.664;9.166;2023-02-04T12:42:09;103278.20;;;7.82;77.11
18755;BME280;35061;47.664;9.166;2023-02-04T12:44:37;103277.34;;;7.82;77.15
18755;BME280;35061;47.664;9.166;2023-02-04T12:47:05;103282.67;;;7.76;77.25
18755;BME280;35061;47.664;9.166;2023-02-04T12:49:33;103280.65;;;7.77;77.36
18755;BME280;35061;47.664;9.166;2023-02-04T12:52:00;103278.20;;;7.79;78.27
18755;BME280;35061;47.664;9.166;2023-02-04T12:54:29;103286.73;;;7.86;77.32
18755;BME280;35061;47.664;9.166;2023-02-04T12:56:57;103286.30;;;7.84;77.38
18755;BME280;35061;47.664;9.166;2023-02-04T12:59:25;103287.52;;;7.87;77.95
18755;BME280;35061;47.664;9.166;2023-02-04T13:01:53;103289.97;;;7.88;77.53
18755;BME280;35061;47.664;9.166;2023-02-04T13:04:21;103289.57;;;7.86;77.45
18755;BME280;35061;47.664;9.166;2023-02-04T13:06:49;103296.48;;;7.89;77.42
18755;BME280;35061;47.664;9.166;2023-02-04T13:09:16;103289.15;;;7.88;77.01
18755;BME280;35061;47.664;9.166;2023-02-04T13:11:44;103293.59;;;7.92;76.80
18755;BME280;35061;47.664;9.166;2023-02-04T13:14:12;103299.32;;;7.89;76.17
18755;BME280;35061;47.664;9.166;2023-02-04T13:16:39;103301.77;;;7.94;76.72
18755;BME280;35061;47.664;9.166;2023-02-04T13:19:07;103303.38;;;7.99;76.47
18755;BME280;35061;47.664;9.166;2023-02-04T13:21:35;103305.01;;;8.00;76.02
18755;BME280;35061;47.664;9.166;2023-02-04T13:24:03;103307.85;;;8.00;76.05